Arago, Minnesota
Current Conditions -  °F | °C
As of 2:53 AM on Thursday 27 Nov 2014 (Local Time) from KPKD Reporting Station
Clear Clear  
Wind Chill: -33°   Ceiling: Unl
Heat Index: -26°   Visibility: 10mi
Dew Point: -28°   Wind: 6mph
Humidity: 82%   Direction: 290°WNW
Pressure: 30.46"   Gusts: NA
Location:  46.9966°N, 95.0029°W
Report Text: KPKD 270853Z AUTO 29005KT 10SM CLR M26/M28 A3046 RMK AO2 SLP360 T12561278 52008
Loading
Personal Weather Stations






























Interactive Weather Map New forecast layout! Learn more

10-Day Weather Forecast

Advertisements
Track Severe Weather on mobile